Time;durP1;ratioP1;P1;durP2;ratioP2;P2;SDS_P1;SDS_P2;PMS_P1;PMS_P2;Temp;Humidity;BMP_temperature;BMP_pressure;BME280_temperature;BME280_humidity;BME280_pressure;Samples;Min_cycle;Max_cycle;Signal;HPM_P1;HPM_P2
2022/04/16 00:02:58;;;;;;;;;;;;;;;;;;20993119;28;20015;-67
2022/04/16 00:13:01;;;;;;;;;;;;;;;;;;20993184;28;19963;-71
2022/04/16 00:23:03;;;;;;;;;;;;;;;;;;21006975;28;19926;-70
2022/04/16 00:33:05;;;;;;;;;;;;;;;;;;21007238;28;19920;-69
2022/04/16 00:43:07;;;;;;;;;;;;;;;;;;21006762;28;20282;-70
2022/04/16 00:53:09;;;;;;;;;;;;;;;;;;21005923;28;19932;-71
2022/04/16 01:03:11;;;;;;;;;;;;;;;;;;21004887;28;19920;-65
2022/04/16 01:13:12;;;;;;;;;;;;;;;;;;21003843;28;19927;-64
2022/04/16 01:23:15;;;;;;;;;;;;;;;;;;21004443;28;19920;-64
2022/04/16 01:33:19;;;;;;;;;;;;;;;;;;21002539;28;19936;-64
2022/04/16 01:43:33;;;;;;;;;;;;;;;;;;21001962;28;19921;-64
2022/04/16 01:53:38;;;;;;;;;;;;;;;;;;21001609;28;20007;-64
2022/04/16 02:03:43;;;;;;;;;;;;;;;;;;21001135;28;19942;-63
2022/04/16 02:13:44;;;;;;;;;;;;;;;;;;20999855;28;20345;-65
2022/04/16 02:24:06;;;;;;;;;;;;;;;;;;21000307;28;20287;-73
2022/04/16 02:34:20;;;;;;;;;;;;;;;;;;21002804;28;19926;-65
2022/04/16 02:54:46;;;;;;;;;;;;;;;;;;20997509;28;20006;-64
2022/04/16 03:04:51;;;;;;;;;;;;;;;;;;20995322;28;19921;-69
2022/04/16 03:25:15;;;;;;;;;;;14.80;58.20;;;;;;20994882;28;19921;-64
2022/04/16 03:35:17;;;;;;;;;;;14.80;58.20;;;;;;20994344;28;19963;-68
2022/04/16 03:45:21;;;;;;;;;;;14.70;58.70;;;;;;20993973;28;19944;-65
2022/04/16 04:05:49;;;;;;;;;;;14.30;59.00;;;;;;21010423;28;20099;-65
2022/04/16 04:15:51;;;;;;;;;;;14.30;58.90;;;;;;21009765;28;19927;-66
2022/04/16 04:25:53;;;;;;;;;;;14.20;59.20;;;;;;21008481;28;19927;-64
2022/04/16 04:35:56;;;;;;;;;;;14.10;59.40;;;;;;21006880;28;20437;-66
2022/04/16 04:45:58;;;;;;;;;;;14.00;59.70;;;;;;21006428;28;20018;-67
2022/04/16 04:55:59;;;;;;;;;;;14.00;59.80;;;;;;21005588;28;20380;-71
2022/04/16 05:06:01;;;;;;;;;;;13.80;60.30;;;;;;21004659;28;20001;-66
2022/04/16 05:16:03;;;;;;;;;;;13.70;60.90;;;;;;21005083;28;19991;-65
2022/04/16 05:26:06;;;;;;;;;;;13.50;61.10;;;;;;21004047;28;19920;-67
2022/04/16 05:36:08;;;;;;;;;;;13.40;61.50;;;;;;21002681;28;19920;-62
2022/04/16 05:46:10;;;;;;;;;;;13.30;61.60;;;;;;21001252;28;19920;-63
2022/04/16 05:56:12;;;;;;;;;;;13.30;61.60;;;;;;21001101;28;19920;-65
2022/04/16 06:06:14;;;;;;;;;;;13.30;61.60;;;;;;21000488;28;20081;-63
2022/04/16 06:16:15;;;;;;;;;;;13.40;61.60;;;;;;20999958;28;19993;-69
2022/04/16 06:26:16;;;;;;;;;;;13.30;61.60;;;;;;20999477;28;19920;-64
2022/04/16 06:36:18;;;;;;;;;;;13.30;61.80;;;;;;20996611;28;20037;-66
2022/04/16 06:46:19;;;;;;;;;;;13.50;61.40;;;;;;20996872;28;19920;-68
2022/04/16 06:56:21;;;;;;;;;;;13.80;60.90;;;;;;20996753;28;19973;-65
2022/04/16 07:06:22;;;;;;;;;;;14.10;60.10;;;;;;20995547;28;19920;-64
2022/04/16 07:16:24;;;;;;;;;;;14.20;59.40;;;;;;20996193;28;19920;-66
2022/04/16 07:26:25;;;;;;;;;;;14.70;57.90;;;;;;20994737;28;19927;-65
2022/04/16 07:36:26;;;;;;;;;;;15.10;57.00;;;;;;20998486;28;20048;-66
2022/04/16 07:46:28;;;;;;;;;;;15.50;55.80;;;;;;21004351;28;20386;-66
2022/04/16 07:56:30;;;;;;;;;;;;;;;;;;20978130;28;20380;-65
2022/04/16 08:06:32;;;;;;;;;;;;;;;;;;20993678;28;19943;-65
2022/04/16 08:16:33;;;;;;;;;;;;;;;;;;20992584;28;19920;-63
2022/04/16 08:26:35;;;;;;;;;;;;;;;;;;20992393;28;19920;-63
2022/04/16 08:36:37;;;;;;;;;;;;;;;;;;20952120;28;19975;-65
2022/04/16 08:46:39;;;;;;;;;;;;;;;;;;20922955;28;20062;-67
2022/04/16 08:56:41;;;;;;;;;;;;;;;;;;20923346;28;19920;-66
2022/04/16 09:06:43;;;;;;;;;;;;;;;;;;20928553;28;20393;-65
2022/04/16 09:16:44;;;;;;;;;;;;;;;;;;20923201;28;19924;-65
2022/04/16 09:26:46;;;;;;;;;;;;;;;;;;20930496;28;20017;-65
2022/04/16 09:36:48;;;;;;;;;;;;;;;;;;20938762;28;19921;-65
2022/04/16 09:46:50;;;;;;;;;;;;;;;;;;20927089;28;19921;-70
2022/04/16 09:56:52;;;;;;;;;;;;;;;;;;20918806;28;19921;-67
2022/04/16 10:06:54;;;;;;;;;;;;;;;;;;20917731;28;19921;-69
2022/04/16 10:16:56;;;;;;;;;;;;;;;;;;20917638;28;19921;-71
2022/04/16 10:26:58;;;;;;;;;;;;;;;;;;20916002;28;19920;-75
2022/04/16 10:36:59;;;;;;;;;;;;;;;;;;20924928;28;19924;-64
2022/04/16 10:47:01;;;;;;;;;;;;;;;;;;20919800;28;19925;-61
2022/04/16 10:57:03;;;;;;;;;;;;;;;;;;20943623;28;19924;-69
2022/04/16 11:07:08;;;;;;;;;;;;;;;;;;20912980;28;19921;-67
2022/04/16 11:17:09;;;;;;;;;;;;;;;;;;20911907;28;20034;-66
2022/04/16 11:37:32;;;;;;;;;;;;;;;;;;20911222;28;19960;-65
2022/04/16 11:47:35;;;;;;;;;;;;;;;;;;20914774;28;19921;-70
2022/04/16 11:57:37;;;;;;;;;;;;;;;;;;20913355;28;19920;-70
2022/04/16 12:07:39;;;;;;;;;;;;;;;;;;20916155;28;19950;-71
2022/04/16 12:17:41;;;;;;;;;;;;;;;;;;20925568;28;19926;-66
2022/04/16 12:27:43;;;;;;;;;;;;;;;;;;20927598;28;19920;-67
2022/04/16 12:37:44;;;;;;;;;;;;;;;;;;20925482;28;20023;-67
2022/04/16 12:47:46;;;;;;;;;;;;;;;;;;20924141;28;20291;-68
2022/04/16 12:57:48;;;;;;;;;;;;;;;;;;20923274;28;20378;-69
2022/04/16 13:07:50;;;;;;;;;;;;;;;;;;20924015;28;19924;-66
2022/04/16 13:17:52;;;;;;;;;;;;;;;;;;20927617;28;19971;-67
2022/04/16 13:27:53;;;;;;;;;;;;;;;;;;20941440;28;20334;-64
2022/04/16 13:37:55;;;;;;;;;;;;;;;;;;20920833;28;20020;-71
2022/04/16 13:47:57;;;;;;;;;;;;;;;;;;20920314;28;20390;-68
2022/04/16 13:57:59;;;;;;;;;;;;;;;;;;20919963;28;19925;-70
2022/04/16 14:08:01;;;;;;;;;;;;;;;;;;20918750;28;19927;-66
2022/04/16 14:18:03;;;;;;;;;;;;;;;;;;20921277;28;20426;-73
2022/04/16 14:28:07;;;;;;;;;;;;;;;;;;20922558;28;19924;-73
2022/04/16 14:38:12;;;;;;;;;;;;;;;;;;20914856;28;20007;-64
2022/04/16 14:48:14;;;;;;;;;;;;;;;;;;20919883;28;20405;-66
2022/04/16 14:58:16;;;;;;;;;;;;;;;;;;20917887;28;20363;-72
2022/04/16 15:08:18;;;;;;;;;;;;;;;;;;20917242;28;19920;-70
2022/04/16 15:18:20;;;;;;;;;;;;;;;;;;20913143;28;19921;-70
2022/04/16 15:28:22;;;;;;;;;;;;;;;;;;20912006;28;19920;-72
2022/04/16 15:38:24;;;;;;;;;;;;;;;;;;20911570;28;20015;-71
2022/04/16 15:48:26;;;;;;;;;;;;;;;;;;20919100;28;19921;-70
2022/04/16 15:58:28;;;;;;;;;;;;;;;;;;20984069;28;19970;-70
2022/04/16 16:08:30;;;;;;;;;;;;;;;;;;20994419;28;19930;-72
2022/04/16 16:18:32;;;;;;;;;;;;;;;;;;21022972;28;19920;-70
2022/04/16 16:28:34;;;;;;;;;;;;;;;;;;21008549;28;19924;-68
2022/04/16 16:38:36;;;;;;;;;;;;;;;;;;21006173;28;19927;-72
2022/04/16 16:48:38;;;;;;;;;;;;;;;;;;21005410;28;19928;-72
2022/04/16 16:58:40;;;;;;;;;;;;;;;;;;20985523;28;19931;-70
2022/04/16 17:08:41;;;;;;;;;;;;;;;;;;21004451;28;19997;-72
2022/04/16 17:18:43;;;;;;;;;;;;;;;;;;20986242;28;19924;-72
2022/04/16 17:28:45;;;;;;;;;;;;;;;;;;21003983;28;19921;-72
2022/04/16 17:38:47;;;;;;;;;;;;;;;;;;21001712;28;19927;-73
2022/04/16 17:48:49;;;;;;;;;;;;;;;;;;20999828;28;19936;-65
2022/04/16 17:58:50;;;;;;;;;;;;;;;;;;21000853;28;19920;-72
2022/04/16 18:08:52;;;;;;;;;;;;;;;;;;20999471;28;20406;-65
2022/04/16 18:18:54;;;;;;;;;;;;;;;;;;21000025;28;19924;-71
2022/04/16 18:28:56;;;;;;;;;;;;;;;;;;20998086;28;20010;-72
2022/04/16 18:38:59;;;;;;;;;;;;;;;;;;20996308;28;19920;-70
2022/04/16 18:49:01;;;;;;;;;;;;;;;;;;20996700;28;19927;-70
2022/04/16 18:59:03;;;;;;;;;;;;;;;;;;20996541;28;19920;-72
2022/04/16 19:09:04;;;;;;;;;;;;;;;;;;20997332;28;20405;-70
2022/04/16 19:19:06;;;;;;;;;;;;;;;;;;20994210;28;19924;-67
2022/04/16 19:29:08;;;;;;;;;;;;;;;;;;20994344;28;19928;-68
2022/04/16 19:39:11;;;;;;;;;;;;;;;;;;20993345;28;20408;-64
2022/04/16 19:49:13;;;;;;;;;;;;;;;;;;20994182;28;19974;-68
2022/04/16 19:59:15;;;;;;;;;;;;;;;;;;20994456;28;19938;-72
2022/04/16 20:19:37;;;;;;;;;;;;;;;;;;20992794;28;19944;-72
2022/04/16 20:29:39;;;;;;;;;;;;;;;;;;20991659;28;19920;-67
2022/04/16 20:50:02;;;;;;;;;;;;;;;;;;21006803;28;19920;-66
2022/04/16 21:00:04;;;;;;;;;;;;;;;;;;21006118;28;19920;-64
2022/04/16 21:10:07;;;;;;;;;;;;;;;;;;21004456;28;20439;-64
2022/04/16 21:20:08;;;;;;;;;;;;;;;;;;20985295;28;20027;-66
2022/04/16 21:30:10;;;;;;;;;;;;;;;;;;21003155;28;19940;-64
2022/04/16 21:40:12;;;;;;;;;;;;;;;;;;21002353;28;20282;-69
2022/04/16 21:50:14;;;;;;;;;;;;;;;;;;21001436;28;19931;-69
2022/04/16 22:00:16;;;;;;;;;;;;;;;;;;21000458;28;19982;-68
2022/04/16 22:10:18;;;;;;;;;;;;;;;;;;20999513;28;19966;-67
2022/04/16 22:20:20;;;;;;;;;;;;;;;;;;20999296;28;19924;-68
2022/04/16 22:30:22;;;;;;;;;;;;;;;;;;20998445;28;19974;-72
2022/04/16 22:50:49;;;;;;;;;;;;;;;;;;20997509;28;20307;-65
2022/04/16 23:00:52;;;;;;;;;;;;;;;;;;20995928;28;19921;-72
2022/04/16 23:10:54;;;;;;;;;;;;;;;;;;20999295;28;20359;-72
2022/04/16 23:20:56;;;;;;;;;;;;;;;;;;21001727;28;19928;-66
2022/04/16 23:30:58;;;;;;;;;;;;;;;;;;20994804;28;19974;-69
2022/04/16 23:41:00;;;;;;;;;;;;;;;;;;20994630;28;20382;-65
2022/04/16 23:51:02;;;;;;;;;;;;;;;;;;20975620;28;19982;-66
